sensor_id;sensor_type;location;lat;lon;timestamp;pressure;altitude;pressure_sealevel;temperature;humidity
9187;BME280;7273;48.902;9.410;2024-03-25T00:01:07;97277.75;;;5.39;76.12
9187;BME280;7273;48.902;9.410;2024-03-25T00:03:33;97276.91;;;5.39;76.19
9187;BME280;7273;48.902;9.410;2024-03-25T00:05:59;97277.19;;;5.37;76.80
9187;BME280;7273;48.902;9.410;2024-03-25T00:08:24;97276.91;;;5.39;76.21
9187;BME280;7273;48.902;9.410;2024-03-25T00:10:50;97280.97;;;5.41;75.42
9187;BME280;7273;48.902;9.410;2024-03-25T00:13:15;97279.63;;;5.44;74.60
9187;BME280;7273;48.902;9.410;2024-03-25T00:15:41;97281.50;;;5.43;74.44
9187;BME280;7273;48.902;9.410;2024-03-25T00:18:08;97278.81;;;5.43;75.25
9187;BME280;7273;48.902;9.410;2024-03-25T00:20:33;97280.69;;;5.43;75.42
9187;BME280;7273;48.902;9.410;2024-03-25T00:22:59;97280.69;;;5.43;74.99
9187;BME280;7273;48.902;9.410;2024-03-25T00:25:25;97280.16;;;5.46;74.59
9187;BME280;7273;48.902;9.410;2024-03-25T00:27:51;97274.00;;;5.45;74.38
9187;BME280;7273;48.902;9.410;2024-03-25T00:30:16;97277.50;;;5.46;74.64
9187;BME280;7273;48.902;9.410;2024-03-25T00:32:42;97267.84;;;5.50;74.01
9187;BME280;7273;48.902;9.410;2024-03-25T00:35:08;97272.16;;;5.51;73.85
9187;BME280;7273;48.902;9.410;2024-03-25T00:37:33;97281.00;;;5.46;74.26
9187;BME280;7273;48.902;9.410;2024-03-25T00:39:59;97274.00;;;5.45;74.87
9187;BME280;7273;48.902;9.410;2024-03-25T00:42:24;97279.63;;;5.44;75.30
9187;BME280;7273;48.902;9.410;2024-03-25T00:44:50;97272.69;;;5.48;74.80
9187;BME280;7273;48.902;9.410;2024-03-25T00:47:15;97272.69;;;5.48;74.43
9187;BME280;7273;48.902;9.410;2024-03-25T00:49:41;97271.06;;;5.47;74.53
9187;BME280;7273;48.902;9.410;2024-03-25T00:52:07;97268.09;;;5.48;74.45
9187;BME280;7273;48.902;9.410;2024-03-25T00:54:32;97265.13;;;5.45;74.86
9187;BME280;7273;48.902;9.410;2024-03-25T00:56:58;97268.38;;;5.47;75.04
9187;BME280;7273;48.902;9.410;2024-03-25T00:59:24;97272.16;;;5.51;74.15
9187;BME280;7273;48.902;9.410;2024-03-25T01:01:49;97269.72;;;5.49;74.32
9187;BME280;7273;48.902;9.410;2024-03-25T01:04:16;97266.78;;;5.51;74.53
9187;BME280;7273;48.902;9.410;2024-03-25T01:06:42;97263.00;;;5.47;75.57
9187;BME280;7273;48.902;9.410;2024-03-25T01:09:08;97263.56;;;5.49;75.57
9187;BME280;7273;48.902;9.410;2024-03-25T01:11:35;97265.69;;;5.47;75.61
9187;BME280;7273;48.902;9.410;2024-03-25T01:14:01;97255.78;;;5.47;75.83
9187;BME280;7273;48.902;9.410;2024-03-25T01:16:27;97256.59;;;5.48;75.42
9187;BME280;7273;48.902;9.410;2024-03-25T01:18:53;97258.19;;;5.49;75.10
9187;BME280;7273;48.902;9.410;2024-03-25T01:21:18;97258.72;;;5.46;76.00
9187;BME280;7273;48.902;9.410;2024-03-25T01:23:44;97250.69;;;5.46;76.38
9187;BME280;7273;48.902;9.410;2024-03-25T01:26:10;97249.88;;;5.45;76.68
9187;BME280;7273;48.902;9.410;2024-03-25T01:28:36;97254.69;;;5.48;76.09
9187;BME280;7273;48.902;9.410;2024-03-25T01:31:01;97248.84;;;5.52;75.00
9187;BME280;7273;48.902;9.410;2024-03-25T01:33:27;97254.44;;;5.50;75.22
9187;BME280;7273;48.902;9.410;2024-03-25T01:35:53;97259.56;;;5.52;74.97
9187;BME280;7273;48.902;9.410;2024-03-25T01:38:21;97259.56;;;5.52;75.18
9187;BME280;7273;48.902;9.410;2024-03-25T01:40:47;97261.16;;;5.53;74.68
9187;BME280;7273;48.902;9.410;2024-03-25T01:43:13;97257.09;;;5.50;75.20
9187;BME280;7273;48.902;9.410;2024-03-25T01:45:38;97257.94;;;5.50;75.03
9187;BME280;7273;48.902;9.410;2024-03-25T01:48:08;97259.56;;;5.52;74.54
9187;BME280;7273;48.902;9.410;2024-03-25T01:50:39;97261.94;;;5.48;76.23
9187;BME280;7273;48.902;9.410;2024-03-25T01:53:06;97257.66;;;5.52;75.08
9187;BME280;7273;48.902;9.410;2024-03-25T01:55:34;97261.16;;;5.53;75.10
9187;BME280;7273;48.902;9.410;2024-03-25T01:58:01;97263.56;;;5.49;75.73
9187;BME280;7273;48.902;9.410;2024-03-25T02:00:27;97257.38;;;5.48;75.71
9187;BME280;7273;48.902;9.410;2024-03-25T02:02:53;97260.59;;;5.50;75.29
9187;BME280;7273;48.902;9.410;2024-03-25T02:05:20;97259.28;;;5.53;74.36
9187;BME280;7273;48.902;9.410;2024-03-25T02:07:46;97254.44;;;5.55;74.36
9187;BME280;7273;48.902;9.410;2024-03-25T02:10:12;97256.88;;;5.52;74.83
9187;BME280;7273;48.902;9.410;2024-03-25T02:12:42;97252.28;;;5.52;74.50
9187;BME280;7273;48.902;9.410;2024-03-25T02:15:09;97247.47;;;5.49;74.83
9187;BME280;7273;48.902;9.410;2024-03-25T02:17:35;97256.59;;;5.53;73.86
9187;BME280;7273;48.902;9.410;2024-03-25T02:20:02;97243.47;;;5.52;73.18
9187;BME280;7273;48.902;9.410;2024-03-25T02:22:28;97250.69;;;5.51;73.80
9187;BME280;7273;48.902;9.410;2024-03-25T02:24:56;97249.63;;;5.52;73.89
9187;BME280;7273;48.902;9.410;2024-03-25T02:27:23;97246.94;;;5.52;73.75
9187;BME280;7273;48.902;9.410;2024-03-25T02:29:48;97255.25;;;5.50;73.64
9187;BME280;7273;48.902;9.410;2024-03-25T02:32:14;97248.56;;;5.53;73.53
9187;BME280;7273;48.902;9.410;2024-03-25T02:34:44;97250.16;;;5.54;73.06
9187;BME280;7273;48.902;9.410;2024-03-25T02:37:10;97254.44;;;5.55;72.92
9187;BME280;7273;48.902;9.410;2024-03-25T02:39:36;97256.06;;;5.56;72.83
9187;BME280;7273;48.902;9.410;2024-03-25T02:42:02;97253.13;;;5.58;73.04
9187;BME280;7273;48.902;9.410;2024-03-25T02:44:28;97257.69;;;5.57;73.19
9187;BME280;7273;48.902;9.410;2024-03-25T02:46:53;97255.53;;;5.54;73.01
9187;BME280;7273;48.902;9.410;2024-03-25T02:49:19;97263.56;;;5.54;73.60
9187;BME280;7273;48.902;9.410;2024-03-25T02:51:45;97259.00;;;5.49;73.50
9187;BME280;7273;48.902;9.410;2024-03-25T02:54:10;97261.69;;;5.49;73.68
9187;BME280;7273;48.902;9.410;2024-03-25T02:56:36;97258.72;;;5.46;74.33
9187;BME280;7273;48.902;9.410;2024-03-25T02:59:02;97258.19;;;5.49;73.79
9187;BME280;7273;48.902;9.410;2024-03-25T03:01:27;97254.44;;;5.50;73.81
9187;BME280;7273;48.902;9.410;2024-03-25T03:03:53;97250.16;;;5.49;73.53
9187;BME280;7273;48.902;9.410;2024-03-25T03:06:18;97255.25;;;5.50;73.47
9187;BME280;7273;48.902;9.410;2024-03-25T03:08:44;97255.25;;;5.50;73.40
9187;BME280;7273;48.902;9.410;2024-03-25T03:11:09;97260.59;;;5.50;73.34
9187;BME280;7273;48.902;9.410;2024-03-25T03:13:35;97251.50;;;5.46;73.86
9187;BME280;7273;48.902;9.410;2024-03-25T03:16:00;97255.50;;;5.49;73.78
9187;BME280;7273;48.902;9.410;2024-03-25T03:18:25;97264.91;;;5.52;73.60
9187;BME280;7273;48.902;9.410;2024-03-25T03:20:51;97252.84;;;5.49;73.45
9187;BME280;7273;48.902;9.410;2024-03-25T03:23:16;97245.34;;;5.51;73.29
9187;BME280;7273;48.902;9.410;2024-03-25T03:25:42;97250.41;;;5.47;73.50
9187;BME280;7273;48.902;9.410;2024-03-25T03:28:08;97252.59;;;5.56;73.34
9187;BME280;7273;48.902;9.410;2024-03-25T03:30:33;97244.53;;;5.56;72.95
9187;BME280;7273;48.902;9.410;2024-03-25T03:32:58;97248.03;;;5.56;73.24
9187;BME280;7273;48.902;9.410;2024-03-25T03:35:24;97240.00;;;5.61;72.99
9187;BME280;7273;48.902;9.410;2024-03-25T03:37:49;97243.44;;;5.57;73.08
9187;BME280;7273;48.902;9.410;2024-03-25T03:40:15;97247.50;;;5.59;73.39
9187;BME280;7273;48.902;9.410;2024-03-25T03:42:40;97247.50;;;5.59;73.45
9187;BME280;7273;48.902;9.410;2024-03-25T03:45:06;97232.50;;;5.58;73.16
9187;BME280;7273;48.902;9.410;2024-03-25T03:47:32;97229.28;;;5.61;73.08
9187;BME280;7273;48.902;9.410;2024-03-25T03:49:57;97245.09;;;5.63;73.13
9187;BME280;7273;48.902;9.410;2024-03-25T03:52:23;97235.41;;;5.62;73.11
9187;BME280;7273;48.902;9.410;2024-03-25T03:54:48;97240.28;;;5.65;73.30
9187;BME280;7273;48.902;9.410;2024-03-25T03:57:14;97234.09;;;5.64;73.37
9187;BME280;7273;48.902;9.410;2024-03-25T03:59:39;97240.25;;;5.70;73.14
9187;BME280;7273;48.902;9.410;2024-03-25T04:02:04;97245.38;;;5.71;73.04
9187;BME280;7273;48.902;9.410;2024-03-25T04:04:30;97247.81;;;5.73;72.68
9187;BME280;7273;48.902;9.410;2024-03-25T04:06:55;97253.44;;;5.71;72.54
9187;BME280;7273;48.902;9.410;2024-03-25T04:09:21;97256.91;;;5.72;72.59
9187;BME280;7273;48.902;9.410;2024-03-25T04:11:48;97257.72;;;5.72;72.99
9187;BME280;7273;48.902;9.410;2024-03-25T04:14:14;97262.28;;;5.72;72.47
9187;BME280;7273;48.902;9.410;2024-03-25T04:16:40;97257.44;;;5.69;72.72
9187;BME280;7273;48.902;9.410;2024-03-25T04:19:05;97262.78;;;5.64;72.72
9187;BME280;7273;48.902;9.410;2024-03-25T04:21:30;97264.66;;;5.63;73.12
9187;BME280;7273;48.902;9.410;2024-03-25T04:23:56;97260.38;;;5.62;73.15
9187;BME280;7273;48.902;9.410;2024-03-25T04:26:21;97258.78;;;5.61;72.95
9187;BME280;7273;48.902;9.410;2024-03-25T04:28:47;97255.00;;;5.57;73.40
9187;BME280;7273;48.902;9.410;2024-03-25T04:31:12;97250.97;;;5.55;73.23
9187;BME280;7273;48.902;9.410;2024-03-25T04:33:38;97251.25;;;5.58;73.48
9187;BME280;7273;48.902;9.410;2024-03-25T04:36:03;97259.53;;;5.57;73.87
9187;BME280;7273;48.902;9.410;2024-03-25T04:38:29;97256.88;;;5.62;73.48
9187;BME280;7273;48.902;9.410;2024-03-25T04:40:54;97256.09;;;5.61;73.39
9187;BME280;7273;48.902;9.410;2024-03-25T04:43:20;97253.13;;;5.63;73.70
9187;BME280;7273;48.902;9.410;2024-03-25T04:45:45;97247.78;;;5.63;73.34
9187;BME280;7273;48.902;9.410;2024-03-25T04:48:11;97250.75;;;5.66;73.48
9187;BME280;7273;48.902;9.410;2024-03-25T04:50:36;97252.88;;;5.64;73.41
9187;BME280;7273;48.902;9.410;2024-03-25T04:53:02;97253.94;;;5.68;73.51
9187;BME280;7273;48.902;9.410;2024-03-25T04:55:27;97252.34;;;5.67;73.98
9187;BME280;7273;48.902;9.410;2024-03-25T04:57:53;97257.16;;;5.70;74.03
9187;BME280;7273;48.902;9.410;2024-03-25T05:00:18;97259.84;;;5.70;74.07
9187;BME280;7273;48.902;9.410;2024-03-25T05:02:44;97260.66;;;5.71;73.59
9187;BME280;7273;48.902;9.410;2024-03-25T05:05:09;97261.97;;;5.68;73.67
9187;BME280;7273;48.902;9.410;2024-03-25T05:07:35;97267.88;;;5.65;73.89
9187;BME280;7273;48.902;9.410;2024-03-25T05:10:01;97269.78;;;5.65;74.01
9187;BME280;7273;48.902;9.410;2024-03-25T05:12:26;97266.56;;;5.63;73.69
9187;BME280;7273;48.902;9.410;2024-03-25T05:14:55;97262.53;;;5.65;74.05
9187;BME280;7273;48.902;9.410;2024-03-25T05:17:20;97271.66;;;5.64;73.33
9187;BME280;7273;48.902;9.410;2024-03-25T05:19:45;97272.19;;;5.66;73.32
9187;BME280;7273;48.902;9.410;2024-03-25T05:22:11;97268.97;;;5.64;73.25
9187;BME280;7273;48.902;9.410;2024-03-25T05:24:36;97273.78;;;5.62;73.01
9187;BME280;7273;48.902;9.410;2024-03-25T05:27:01;97273.50;;;5.59;73.51
9187;BME280;7273;48.902;9.410;2024-03-25T05:29:27;97282.91;;;5.61;72.90
9187;BME280;7273;48.902;9.410;2024-03-25T05:32:01;97277.53;;;5.56;72.90
9187;BME280;7273;48.902;9.410;2024-03-25T05:34:27;97278.84;;;5.53;73.59
9187;BME280;7273;48.902;9.410;2024-03-25T05:36:53;97279.94;;;5.53;73.44
9187;BME280;7273;48.902;9.410;2024-03-25T05:39:19;97272.69;;;5.53;72.79
9187;BME280;7273;48.902;9.410;2024-03-25T05:41:45;97285.84;;;5.55;72.56
9187;BME280;7273;48.902;9.410;2024-03-25T05:44:11;97277.53;;;5.56;72.69
9187;BME280;7273;48.902;9.410;2024-03-25T05:46:36;97282.34;;;5.54;72.97
9187;BME280;7273;48.902;9.410;2024-03-25T05:49:05;97285.56;;;5.51;73.17
9187;BME280;7273;48.902;9.410;2024-03-25T05:51:31;97287.69;;;5.49;73.52
9187;BME280;7273;48.902;9.410;2024-03-25T05:53:58;97287.41;;;5.50;73.77
9187;BME280;7273;48.902;9.410;2024-03-25T05:56:24;97286.09;;;5.53;73.58
9187;BME280;7273;48.902;9.410;2024-03-25T05:58:58;97289.31;;;5.55;73.69
9187;BME280;7273;48.902;9.410;2024-03-25T06:01:24;97282.34;;;5.54;73.37
9187;BME280;7273;48.902;9.410;2024-03-25T06:03:49;97284.50;;;5.57;73.64
9187;BME280;7273;48.902;9.410;2024-03-25T06:06:14;97288.81;;;5.58;73.47
9187;BME280;7273;48.902;9.410;2024-03-25T06:08:40;97284.78;;;5.61;73.72
9187;BME280;7273;48.902;9.410;2024-03-25T06:11:05;97287.22;;;5.67;73.57
9187;BME280;7273;48.902;9.410;2024-03-25T06:13:31;97286.13;;;5.68;73.33
9187;BME280;7273;48.902;9.410;2024-03-25T06:15:57;97286.13;;;5.68;73.84
9187;BME280;7273;48.902;9.410;2024-03-25T06:18:22;97293.41;;;5.73;73.60
9187;BME280;7273;48.902;9.410;2024-03-25T06:20:47;97292.06;;;5.75;73.61
9187;BME280;7273;48.902;9.410;2024-03-25T06:23:26;97294.19;;;5.78;73.74
9187;BME280;7273;48.902;9.410;2024-03-25T06:25:52;97292.34;;;5.79;73.83
9187;BME280;7273;48.902;9.410;2024-03-25T06:28:18;97290.19;;;5.81;73.65
9187;BME280;7273;48.902;9.410;2024-03-25T06:30:46;97290.97;;;5.76;74.52
9187;BME280;7273;48.902;9.410;2024-03-25T06:33:30;97289.16;;;5.87;73.90
9187;BME280;7273;48.902;9.410;2024-03-25T06:36:15;97283.78;;;5.87;73.44
9187;BME280;7273;48.902;9.410;2024-03-25T06:38:41;97287.03;;;5.94;73.09
9187;BME280;7273;48.902;9.410;2024-03-25T06:41:06;97277.38;;;5.98;73.57
9187;BME280;7273;48.902;9.410;2024-03-25T06:43:31;97276.03;;;6.00;73.71
9187;BME280;7273;48.902;9.410;2024-03-25T06:45:57;97281.97;;;6.02;73.86
9187;BME280;7273;48.902;9.410;2024-03-25T06:48:23;97285.97;;;6.00;73.60
9187;BME280;7273;48.902;9.410;2024-03-25T06:50:58;97291.34;;;6.05;73.14
9187;BME280;7273;48.902;9.410;2024-03-25T06:53:24;97287.84;;;6.09;74.04
9187;BME280;7273;48.902;9.410;2024-03-25T06:55:57;97290.81;;;6.18;73.29
9187;BME280;7273;48.902;9.410;2024-03-25T06:58:24;97293.75;;;6.11;73.41
9187;BME280;7273;48.902;9.410;2024-03-25T07:00:50;97296.72;;;6.15;73.20
9187;BME280;7273;48.902;9.410;2024-03-25T07:03:16;97297.00;;;6.18;73.48
9187;BME280;7273;48.902;9.410;2024-03-25T07:05:44;97289.75;;;6.24;72.74
9187;BME280;7273;48.902;9.410;2024-03-25T07:08:09;97295.66;;;6.26;73.34
9187;BME280;7273;48.902;9.410;2024-03-25T07:10:35;97301.84;;;6.31;73.43
9187;BME280;7273;48.902;9.410;2024-03-25T07:13:00;97297.53;;;6.50;73.04
9187;BME280;7273;48.902;9.410;2024-03-25T07:15:25;97303.97;;;6.69;73.02
9187;BME280;7273;48.902;9.410;2024-03-25T07:17:51;97308.28;;;6.70;73.32
9187;BME280;7273;48.902;9.410;2024-03-25T07:20:16;97308.81;;;6.72;73.36
9187;BME280;7273;48.902;9.410;2024-03-25T07:22:41;97316.31;;;6.91;73.01
9187;BME280;7273;48.902;9.410;2024-03-25T07:25:07;97303.66;;;7.01;72.94
9187;BME280;7273;48.902;9.410;2024-03-25T07:27:34;97315.22;;;7.07;72.41
9187;BME280;7273;48.902;9.410;2024-03-25T07:30:00;97307.63;;;7.19;72.24
9187;BME280;7273;48.902;9.410;2024-03-25T07:32:25;97309.25;;;7.25;72.14
9187;BME280;7273;48.902;9.410;2024-03-25T07:34:50;97315.13;;;7.27;71.71
9187;BME280;7273;48.902;9.410;2024-03-25T07:37:16;97301.16;;;7.30;71.80
9187;BME280;7273;48.902;9.410;2024-03-25T07:39:42;97301.69;;;7.27;71.58
9187;BME280;7273;48.902;9.410;2024-03-25T07:42:07;97292.88;;;7.11;71.73
9187;BME280;7273;48.902;9.410;2024-03-25T07:44:33;97292.84;;;7.21;71.52
9187;BME280;7273;48.902;9.410;2024-03-25T07:46:58;97291.47;;;7.29;71.81
9187;BME280;7273;48.902;9.410;2024-03-25T07:49:23;97291.47;;;7.34;72.05
9187;BME280;7273;48.902;9.410;2024-03-25T07:51:49;97293.53;;;7.52;71.41
9187;BME280;7273;48.902;9.410;2024-03-25T07:54:14;97288.16;;;7.52;72.22
9187;BME280;7273;48.902;9.410;2024-03-25T07:56:42;97301.28;;;7.68;71.70
9187;BME280;7273;48.902;9.410;2024-03-25T07:59:07;97300.47;;;7.68;71.57
9187;BME280;7273;48.902;9.410;2024-03-25T08:01:33;97297.75;;;7.73;71.10
9187;BME280;7273;48.902;9.410;2024-03-25T08:03:58;97299.41;;;7.64;70.81
9187;BME280;7273;48.902;9.410;2024-03-25T08:06:24;97305.03;;;7.72;71.44
9187;BME280;7273;48.902;9.410;2024-03-25T08:08:49;97310.13;;;7.74;71.16
9187;BME280;7273;48.902;9.410;2024-03-25T08:11:15;97303.16;;;7.68;71.01
9187;BME280;7273;48.902;9.410;2024-03-25T08:13:40;97308.81;;;7.66;70.58
9187;BME280;7273;48.902;9.410;2024-03-25T08:16:06;97310.41;;;7.77;70.89
9187;BME280;7273;48.902;9.410;2024-03-25T08:18:31;97302.66;;;7.66;70.15
9187;BME280;7273;48.902;9.410;2024-03-25T08:20:57;97307.44;;;7.74;71.03
9187;BME280;7273;48.902;9.410;2024-03-25T08:23:22;97307.16;;;7.75;70.69
9187;BME280;7273;48.902;9.410;2024-03-25T08:25:48;97293.41;;;7.82;71.09
9187;BME280;7273;48.902;9.410;2024-03-25T08:28:14;97297.41;;;7.84;70.84
9187;BME280;7273;48.902;9.410;2024-03-25T08:30:39;97297.09;;;7.91;70.94
9187;BME280;7273;48.902;9.410;2024-03-25T08:33:05;97290.94;;;7.90;70.72
9187;BME280;7273;48.902;9.410;2024-03-25T08:35:30;97289.25;;;7.99;70.67
9187;BME280;7273;48.902;9.410;2024-03-25T08:37:56;97278.47;;;8.04;70.34
9187;BME280;7273;48.902;9.410;2024-03-25T08:40:21;97286.97;;;8.22;70.70
9187;BME280;7273;48.902;9.410;2024-03-25T08:42:47;97283.16;;;8.33;70.17
9187;BME280;7273;48.902;9.410;2024-03-25T08:45:12;97281.91;;;8.15;68.35
9187;BME280;7273;48.902;9.410;2024-03-25T08:47:38;97278.47;;;8.04;67.92
9187;BME280;7273;48.902;9.410;2024-03-25T08:50:05;97281.22;;;8.33;68.82
9187;BME280;7273;48.902;9.410;2024-03-25T08:52:31;97281.19;;;8.38;68.90
9187;BME280;7273;48.902;9.410;2024-03-25T08:54:57;97278.63;;;8.57;69.53
9187;BME280;7273;48.902;9.410;2024-03-25T08:57:22;97277.72;;;8.66;69.31
9187;BME280;7273;48.902;9.410;2024-03-25T08:59:48;97272.97;;;8.87;68.88
9187;BME280;7273;48.902;9.410;2024-03-25T09:02:13;97270.75;;;8.89;68.15
9187;BME280;7273;48.902;9.410;2024-03-25T09:04:38;97262.00;;;9.02;68.38
9187;BME280;7273;48.902;9.410;2024-03-25T09:07:04;97262.66;;;9.17;68.17
9187;BME280;7273;48.902;9.410;2024-03-25T09:09:29;97256.50;;;9.35;68.45
9187;BME280;7273;48.902;9.410;2024-03-25T09:12:13;97251.88;;;9.41;67.44
9187;BME280;7273;48.902;9.410;2024-03-25T09:14:38;97257.56;;;9.58;68.08
9187;BME280;7273;48.902;9.410;2024-03-25T09:17:04;97253.13;;;9.48;66.58
9187;BME280;7273;48.902;9.410;2024-03-25T09:19:30;97245.69;;;9.78;67.58
9187;BME280;7273;48.902;9.410;2024-03-25T09:21:55;97241.53;;;10.04;67.43
9187;BME280;7273;48.902;9.410;2024-03-25T09:24:20;97246.91;;;10.09;67.20
9187;BME280;7273;48.902;9.410;2024-03-25T09:26:46;97241.88;;;10.21;67.43
9187;BME280;7273;48.902;9.410;2024-03-25T09:29:11;97238.56;;;10.24;67.05
9187;BME280;7273;48.902;9.410;2024-03-25T09:31:38;97241.94;;;10.48;67.36
9187;BME280;7273;48.902;9.410;2024-03-25T09:34:03;97237.59;;;10.33;66.09
9187;BME280;7273;48.902;9.410;2024-03-25T09:36:28;97246.16;;;10.22;65.08
9187;BME280;7273;48.902;9.410;2024-03-25T09:38:54;97231.81;;;10.40;66.07
9187;BME280;7273;48.902;9.410;2024-03-25T09:41:19;97235.06;;;10.23;64.43
9187;BME280;7273;48.902;9.410;2024-03-25T09:43:48;97229.91;;;10.40;65.66
9187;BME280;7273;48.902;9.410;2024-03-25T09:46:15;97224.28;;;10.55;66.54
9187;BME280;7273;48.902;9.410;2024-03-25T09:48:42;97224.38;;;10.64;66.46
9187;BME280;7273;48.902;9.410;2024-03-25T09:51:09;97213.09;;;10.89;66.89
9187;BME280;7273;48.902;9.410;2024-03-25T09:53:34;97204.72;;;11.18;66.68
9187;BME280;7273;48.902;9.410;2024-03-25T09:56:00;97210.22;;;10.99;66.10
9187;BME280;7273;48.902;9.410;2024-03-25T09:58:26;97212.50;;;11.06;65.65
9187;BME280;7273;48.902;9.410;2024-03-25T10:00:52;97202.47;;;11.20;65.77
9187;BME280;7273;48.902;9.410;2024-03-25T10:03:18;97203.81;;;11.36;66.31
9187;BME280;7273;48.902;9.410;2024-03-25T10:05:44;97194.88;;;11.22;64.85
9187;BME280;7273;48.902;9.410;2024-03-25T10:08:09;97191.16;;;11.31;65.49
9187;BME280;7273;48.902;9.410;2024-03-25T10:10:35;97187.22;;;11.51;65.53
9187;BME280;7273;48.902;9.410;2024-03-25T10:13:04;97186.38;;;11.77;65.88
9187;BME280;7273;48.902;9.410;2024-03-25T10:15:30;97180.75;;;11.87;65.98
9187;BME280;7273;48.902;9.410;2024-03-25T10:17:55;97188.94;;;11.96;65.61
9187;BME280;7273;48.902;9.410;2024-03-25T10:20:21;97179.97;;;12.09;66.02
9187;BME280;7273;48.902;9.410;2024-03-25T10:22:47;97172.31;;;12.33;65.40
9187;BME280;7273;48.902;9.410;2024-03-25T10:27:58;97153.63;;;12.54;65.24
9187;BME280;7273;48.902;9.410;2024-03-25T10:30:25;97147.59;;;12.65;64.98
9187;BME280;7273;48.902;9.410;2024-03-25T10:32:58;97147.06;;;12.85;64.75
9187;BME280;7273;48.902;9.410;2024-03-25T10:35:26;97139.59;;;12.91;64.96
9187;BME280;7273;48.902;9.410;2024-03-25T10:37:53;97133.03;;;12.92;64.25
9187;BME280;7273;48.902;9.410;2024-03-25T10:40:22;97130.09;;;12.71;64.87
9187;BME280;7273;48.902;9.410;2024-03-25T10:42:48;97126.31;;;12.81;64.13
9187;BME280;7273;48.902;9.410;2024-03-25T10:45:14;97120.78;;;12.94;64.56
9187;BME280;7273;48.902;9.410;2024-03-25T10:47:40;97133.16;;;13.17;64.48
9187;BME280;7273;48.902;9.410;2024-03-25T10:50:08;97127.06;;;13.12;64.41
9187;BME280;7273;48.902;9.410;2024-03-25T10:52:37;97124.56;;;13.41;63.96
9187;BME280;7273;48.902;9.410;2024-03-25T10:55:03;97125.25;;;13.55;64.09
9187;BME280;7273;48.902;9.410;2024-03-25T10:57:29;97128.09;;;13.59;64.04
9187;BME280;7273;48.902;9.410;2024-03-25T10:59:55;97127.75;;;13.34;64.42
9187;BME280;7273;48.902;9.410;2024-03-25T11:02:22;97121.72;;;13.46;62.94
9187;BME280;7273;48.902;9.410;2024-03-25T11:04:48;97115.34;;;13.76;64.11
9187;BME280;7273;48.902;9.410;2024-03-25T11:07:17;97120.47;;;13.78;64.24
9187;BME280;7273;48.902;9.410;2024-03-25T11:09:42;97123.97;;;14.12;63.83
9187;BME280;7273;48.902;9.410;2024-03-25T11:12:12;97121.88;;;14.35;63.51
9187;BME280;7273;48.902;9.410;2024-03-25T11:14:38;97111.00;;;14.81;62.47
9187;BME280;7273;48.902;9.410;2024-03-25T11:17:14;97102.81;;;15.19;59.66
9187;BME280;7273;48.902;9.410;2024-03-25T11:19:40;97098.69;;;15.62;61.55
9187;BME280;7273;48.902;9.410;2024-03-25T11:22:11;97100.84;;;16.43;62.41
9187;BME280;7273;48.902;9.410;2024-03-25T11:24:37;97095.25;;;16.84;63.60
9187;BME280;7273;48.902;9.410;2024-03-25T11:27:06;97090.59;;;16.96;64.28
9187;BME280;7273;48.902;9.410;2024-03-25T11:29:32;97086.16;;;17.16;66.62
9187;BME280;7273;48.902;9.410;2024-03-25T11:32:00;97079.50;;;17.65;67.57
9187;BME280;7273;48.902;9.410;2024-03-25T11:34:28;97077.28;;;18.38;67.56
9187;BME280;7273;48.902;9.410;2024-03-25T11:36:53;97073.28;;;18.79;67.92
9187;BME280;7273;48.902;9.410;2024-03-25T11:39:21;97066.13;;;18.74;67.57
9187;BME280;7273;48.902;9.410;2024-03-25T11:41:47;97064.88;;;19.03;69.75
9187;BME280;7273;48.902;9.410;2024-03-25T11:44:12;97057.84;;;19.36;69.33
9187;BME280;7273;48.902;9.410;2024-03-25T11:46:39;97050.34;;;19.18;72.02
9187;BME280;7273;48.902;9.410;2024-03-25T11:49:12;97053.78;;;19.30;70.35
9187;BME280;7273;48.902;9.410;2024-03-25T11:51:38;97046.25;;;19.43;72.55
9187;BME280;7273;48.902;9.410;2024-03-25T11:54:07;97040.25;;;19.22;74.19
9187;BME280;7273;48.902;9.410;2024-03-25T11:56:35;97036.78;;;18.74;72.97
9187;BME280;7273;48.902;9.410;2024-03-25T11:59:03;97041.38;;;18.39;74.93
9187;BME280;7273;48.902;9.410;2024-03-25T12:01:28;97019.28;;;18.63;75.35
9187;BME280;7273;48.902;9.410;2024-03-25T12:03:54;97020.06;;;18.48;75.37
9187;BME280;7273;48.902;9.410;2024-03-25T12:06:20;97020.47;;;18.19;73.54
9187;BME280;7273;48.902;9.410;2024-03-25T12:08:45;97011.84;;;17.90;76.25
9187;BME280;7273;48.902;9.410;2024-03-25T12:11:31;97007.19;;;17.63;75.71
9187;BME280;7273;48.902;9.410;2024-03-25T12:13:57;96999.34;;;17.49;74.62
9187;BME280;7273;48.902;9.410;2024-03-25T12:16:23;96996.84;;;17.56;72.57
9187;BME280;7273;48.902;9.410;2024-03-25T12:18:49;96989.44;;;17.44;71.91
9187;BME280;7273;48.902;9.410;2024-03-25T12:21:15;96983.53;;;17.30;70.60
9187;BME280;7273;48.902;9.410;2024-03-25T12:23:42;96974.63;;;17.33;69.78
9187;BME280;7273;48.902;9.410;2024-03-25T12:26:07;96974.34;;;17.23;68.77
9187;BME280;7273;48.902;9.410;2024-03-25T12:28:33;96968.72;;;16.92;67.91
9187;BME280;7273;48.902;9.410;2024-03-25T12:31:07;96968.97;;;16.51;67.38
9187;BME280;7273;48.902;9.410;2024-03-25T12:33:46;96964.50;;;16.34;65.94
9187;BME280;7273;48.902;9.410;2024-03-25T12:36:12;96971.19;;;16.25;66.29
9187;BME280;7273;48.902;9.410;2024-03-25T12:38:38;96959.00;;;16.10;65.41
9187;BME280;7273;48.902;9.410;2024-03-25T12:41:08;96950.97;;;16.13;63.94
9187;BME280;7273;48.902;9.410;2024-03-25T12:43:34;96941.06;;;15.64;64.40
9187;BME280;7273;48.902;9.410;2024-03-25T12:46:00;96946.06;;;15.62;63.89
9187;BME280;7273;48.902;9.410;2024-03-25T12:48:26;96930.47;;;15.51;63.34
9187;BME280;7273;48.902;9.410;2024-03-25T12:50:52;96929.22;;;15.48;62.84
9187;BME280;7273;48.902;9.410;2024-03-25T12:53:19;96924.31;;;15.42;62.02
9187;BME280;7273;48.902;9.410;2024-03-25T12:55:48;96921.38;;;15.26;61.76
9187;BME280;7273;48.902;9.410;2024-03-25T12:58:13;96918.03;;;15.21;61.01
9187;BME280;7273;48.902;9.410;2024-03-25T13:00:40;96915.47;;;14.83;61.23
9187;BME280;7273;48.902;9.410;2024-03-25T13:03:06;96902.00;;;14.87;60.51
9187;BME280;7273;48.902;9.410;2024-03-25T13:05:33;96903.97;;;14.98;60.13
9187;BME280;7273;48.902;9.410;2024-03-25T13:07:59;96896.41;;;14.83;59.58
9187;BME280;7273;48.902;9.410;2024-03-25T13:10:24;96885.63;;;14.74;59.55
9187;BME280;7273;48.902;9.410;2024-03-25T13:12:50;96874.19;;;14.60;58.98
9187;BME280;7273;48.902;9.410;2024-03-25T13:15:15;96883.63;;;14.63;58.86
9187;BME280;7273;48.902;9.410;2024-03-25T13:17:41;96876.84;;;14.69;58.53
9187;BME280;7273;48.902;9.410;2024-03-25T13:20:06;96876.16;;;14.72;57.90
9187;BME280;7273;48.902;9.410;2024-03-25T13:22:32;96877.81;;;14.44;57.71
9187;BME280;7273;48.902;9.410;2024-03-25T13:24:58;96860.03;;;14.46;57.53
9187;BME280;7273;48.902;9.410;2024-03-25T13:27:25;96854.03;;;14.03;55.37